TimeCST,TemperatureF,Dew PointF,Humidity,Sea Level PressureIn,VisibilityMPH,Wind Direction,Wind SpeedMPH,Gust SpeedMPH,PrecipitationIn,Events,Conditions,WindDirDegrees,DateUTC
12:53 AM,10.9,9.0,92,30.12,8.0,South,5.8,-,N/A,,Clear,170,2011-12-24 06:53:00
1:53 AM,10.9,8.1,88,30.09,9.0,SE,5.8,-,N/A,,Clear,140,2011-12-24 07:53:00
2:53 AM,12.9,10.0,88,30.09,10.0,SE,9.2,-,N/A,,Clear,140,2011-12-24 08:53:00
3:53 AM,12.9,10.0,88,30.08,10.0,SE,6.9,-,N/A,,Clear,130,2011-12-24 09:53:00
4:53 AM,12.9,10.0,88,30.05,10.0,ESE,5.8,-,N/A,,Clear,120,2011-12-24 10:53:00
5:53 AM,10.0,7.0,87,30.06,10.0,SSE,4.6,-,N/A,,Clear,160,2011-12-24 11:53:00
6:53 AM,10.9,8.1,88,30.05,10.0,SE,4.6,-,N/A,,Clear,140,2011-12-24 12:53:00
7:53 AM,8.1,5.0,87,30.04,9.0,Calm,Calm,-,N/A,,Clear,0,2011-12-24 13:53:00
8:53 AM,6.1,3.0,87,30.05,10.0,Calm,Calm,-,N/A,,Clear,0,2011-12-24 14:53:00
9:53 AM,15.1,12.0,88,30.05,10.0,West,4.6,-,N/A,,Clear,270,2011-12-24 15:53:00
10:53 AM,25.0,21.0,85,30.04,10.0,West,10.4,-,N/A,,Clear,270,2011-12-24 16:53:00
11:53 AM,30.9,21.9,69,30.01,10.0,West,11.5,-,N/A,,Clear,270,2011-12-24 17:53:00
12:53 PM,32.0,21.2,64,29.92,10.0,West,13.8,-,N/A,,Clear,270,2011-12-24 18:53:00
1:53 PM,32.0,21.2,64,29.93,10.0,West,11.5,-,N/A,,Clear,270,2011-12-24 19:53:00
2:53 PM,33.1,21.9,64,29.99,10.0,West,12.7,-,N/A,,Mostly Cloudy,270,2011-12-24 20:53:00
3:53 PM,33.1,23.0,66,29.99,10.0,WSW,9.2,-,N/A,,Partly Cloudy,250,2011-12-24 21:53:00
4:53 PM,30.9,23.0,72,29.99,10.0,WSW,8.1,-,N/A,,Clear,240,2011-12-24 22:53:00
5:53 PM,30.0,21.0,69,29.99,10.0,WSW,11.5,-,N/A,,Clear,250,2011-12-24 23:53:00
6:53 PM,30.9,21.0,67,29.98,10.0,West,11.5,-,N/A,,Clear,260,2011-12-25 00:53:00
7:53 PM,32.0,21.0,64,29.96,10.0,West,12.7,-,N/A,,Partly Cloudy,260,2011-12-25 01:53:00
8:53 PM,34.0,21.0,59,29.96,10.0,West,13.8,-,N/A,,Clear,280,2011-12-25 02:53:00
9:53 PM,35.1,21.0,57,29.95,10.0,WNW,24.2,31.1,N/A,,Clear,290,2011-12-25 03:53:00
10:53 PM,35.1,21.9,59,29.95,10.0,WNW,25.3,32.2,N/A,,Partly Cloudy,290,2011-12-25 04:53:00
11:53 PM,35.1,23.0,61,29.97,10.0,WNW,20.7,28.8,N/A,,Overcast,300,2011-12-25 05:53:00